sensor_id;sensor_type;location;lat;lon;timestamp;P1;durP1;ratioP1;P2;durP2;ratioP2
15230;SDS011;32569;51.762;8.564;2023-11-21T00:00:19;4.10;;;3.80;;
15230;SDS011;32569;51.762;8.564;2023-11-21T00:02:46;4.20;;;3.90;;
15230;SDS011;32569;51.762;8.564;2023-11-21T00:05:13;3.53;;;3.33;;
15230;SDS011;32569;51.762;8.564;2023-11-21T00:07:42;4.60;;;4.30;;
15230;SDS011;32569;51.762;8.564;2023-11-21T00:10:09;4.57;;;4.27;;
15230;SDS011;32569;51.762;8.564;2023-11-21T00:12:39;5.30;;;4.90;;
15230;SDS011;32569;51.762;8.564;2023-11-21T00:15:07;4.60;;;4.27;;
15230;SDS011;32569;51.762;8.564;2023-11-21T00:17:35;4.87;;;4.47;;
15230;SDS011;32569;51.762;8.564;2023-11-21T00:20:02;5.03;;;4.63;;
15230;SDS011;32569;51.762;8.564;2023-11-21T00:22:31;4.80;;;4.40;;
15230;SDS011;32569;51.762;8.564;2023-11-21T00:25:00;4.40;;;4.10;;
15230;SDS011;32569;51.762;8.564;2023-11-21T00:27:28;3.50;;;3.30;;
15230;SDS011;32569;51.762;8.564;2023-11-21T00:29:55;4.50;;;4.10;;
15230;SDS011;32569;51.762;8.564;2023-11-21T00:32:22;4.03;;;3.70;;
15230;SDS011;32569;51.762;8.564;2023-11-21T00:34:48;4.00;;;3.70;;
15230;SDS011;32569;51.762;8.564;2023-11-21T00:37:15;3.83;;;3.53;;
15230;SDS011;32569;51.762;8.564;2023-11-21T00:39:42;4.13;;;3.83;;
15230;SDS011;32569;51.762;8.564;2023-11-21T00:42:10;4.13;;;3.83;;
15230;SDS011;32569;51.762;8.564;2023-11-21T00:44:39;4.70;;;3.87;;
15230;SDS011;32569;51.762;8.564;2023-11-21T00:47:05;3.90;;;3.57;;
15230;SDS011;32569;51.762;8.564;2023-11-21T00:49:33;4.33;;;4.03;;
15230;SDS011;32569;51.762;8.564;2023-11-21T00:51:59;4.43;;;4.03;;
15230;SDS011;32569;51.762;8.564;2023-11-21T00:54:26;5.93;;;5.10;;
15230;SDS011;32569;51.762;8.564;2023-11-21T00:56:53;5.00;;;4.60;;
15230;SDS011;32569;51.762;8.564;2023-11-21T00:59:21;4.60;;;4.30;;
15230;SDS011;32569;51.762;8.564;2023-11-21T01:01:49;4.70;;;4.30;;
15230;SDS011;32569;51.762;8.564;2023-11-21T01:04:16;4.23;;;3.93;;
15230;SDS011;32569;51.762;8.564;2023-11-21T01:06:42;4.20;;;3.90;;
15230;SDS011;32569;51.762;8.564;2023-11-21T01:09:10;4.40;;;4.00;;
15230;SDS011;32569;51.762;8.564;2023-11-21T01:11:37;4.30;;;4.00;;
15230;SDS011;32569;51.762;8.564;2023-11-21T01:14:04;4.40;;;4.00;;
15230;SDS011;32569;51.762;8.564;2023-11-21T01:16:35;4.80;;;4.50;;
15230;SDS011;32569;51.762;8.564;2023-11-21T01:19:02;4.90;;;4.43;;
15230;SDS011;32569;51.762;8.564;2023-11-21T01:21:29;4.20;;;3.90;;
15230;SDS011;32569;51.762;8.564;2023-11-21T01:23:56;4.23;;;3.93;;
15230;SDS011;32569;51.762;8.564;2023-11-21T01:26:23;4.50;;;4.20;;
15230;SDS011;32569;51.762;8.564;2023-11-21T01:28:50;4.20;;;3.90;;
15230;SDS011;32569;51.762;8.564;2023-11-21T01:31:16;5.03;;;4.63;;
15230;SDS011;32569;51.762;8.564;2023-11-21T01:33:45;5.47;;;5.07;;
15230;SDS011;32569;51.762;8.564;2023-11-21T01:36:13;5.43;;;5.03;;
15230;SDS011;32569;51.762;8.564;2023-11-21T01:38:40;5.47;;;5.13;;
15230;SDS011;32569;51.762;8.564;2023-11-21T01:41:07;5.53;;;5.13;;
15230;SDS011;32569;51.762;8.564;2023-11-21T01:43:36;4.97;;;4.67;;
15230;SDS011;32569;51.762;8.564;2023-11-21T01:46:03;5.33;;;4.93;;
15230;SDS011;32569;51.762;8.564;2023-11-21T01:48:31;5.10;;;4.70;;
15230;SDS011;32569;51.762;8.564;2023-11-21T01:50:59;4.80;;;4.50;;
15230;SDS011;32569;51.762;8.564;2023-11-21T01:53:27;4.63;;;4.33;;
15230;SDS011;32569;51.762;8.564;2023-11-21T01:55:55;4.33;;;4.03;;
15230;SDS011;32569;51.762;8.564;2023-11-21T01:58:22;4.80;;;4.40;;
15230;SDS011;32569;51.762;8.564;2023-11-21T02:00:49;4.20;;;4.00;;
15230;SDS011;32569;51.762;8.564;2023-11-21T02:03:16;4.40;;;4.10;;
15230;SDS011;32569;51.762;8.564;2023-11-21T02:05:43;4.60;;;4.20;;
15230;SDS011;32569;51.762;8.564;2023-11-21T02:08:11;4.13;;;3.83;;
15230;SDS011;32569;51.762;8.564;2023-11-21T02:10:37;4.90;;;4.50;;
15230;SDS011;32569;51.762;8.564;2023-11-21T02:13:05;4.30;;;4.00;;
15230;SDS011;32569;51.762;8.564;2023-11-21T02:15:32;4.47;;;4.17;;
15230;SDS011;32569;51.762;8.564;2023-11-21T02:17:59;4.10;;;3.90;;
15230;SDS011;32569;51.762;8.564;2023-11-21T02:20:28;4.40;;;4.00;;
15230;SDS011;32569;51.762;8.564;2023-11-21T02:22:56;4.40;;;4.00;;
15230;SDS011;32569;51.762;8.564;2023-11-21T02:25:24;4.10;;;3.80;;
15230;SDS011;32569;51.762;8.564;2023-11-21T02:27:52;3.93;;;3.73;;
15230;SDS011;32569;51.762;8.564;2023-11-21T02:30:19;4.20;;;3.90;;
15230;SDS011;32569;51.762;8.564;2023-11-21T02:32:47;4.50;;;4.10;;
15230;SDS011;32569;51.762;8.564;2023-11-21T02:35:14;4.60;;;4.00;;
15230;SDS011;32569;51.762;8.564;2023-11-21T02:37:41;4.23;;;3.83;;
15230;SDS011;32569;51.762;8.564;2023-11-21T02:40:10;4.37;;;4.07;;
15230;SDS011;32569;51.762;8.564;2023-11-21T02:42:38;4.70;;;4.40;;
15230;SDS011;32569;51.762;8.564;2023-11-21T02:45:08;4.60;;;4.30;;
15230;SDS011;32569;51.762;8.564;2023-11-21T02:47:37;3.90;;;3.70;;
15230;SDS011;32569;51.762;8.564;2023-11-21T02:50:04;4.50;;;4.20;;
15230;SDS011;32569;51.762;8.564;2023-11-21T02:52:34;3.83;;;3.63;;
15230;SDS011;32569;51.762;8.564;2023-11-21T02:55:01;4.40;;;4.10;;
15230;SDS011;32569;51.762;8.564;2023-11-21T02:57:29;4.40;;;4.10;;
15230;SDS011;32569;51.762;8.564;2023-11-21T02:59:56;4.53;;;4.23;;
15230;SDS011;32569;51.762;8.564;2023-11-21T03:02:23;4.47;;;4.17;;
15230;SDS011;32569;51.762;8.564;2023-11-21T03:04:49;4.67;;;4.37;;
15230;SDS011;32569;51.762;8.564;2023-11-21T03:07:16;4.60;;;4.20;;
15230;SDS011;32569;51.762;8.564;2023-11-21T03:09:44;4.30;;;4.00;;
15230;SDS011;32569;51.762;8.564;2023-11-21T03:12:11;4.40;;;4.10;;
15230;SDS011;32569;51.762;8.564;2023-11-21T03:14:39;4.50;;;4.20;;
15230;SDS011;32569;51.762;8.564;2023-11-21T03:17:06;4.63;;;4.33;;
15230;SDS011;32569;51.762;8.564;2023-11-21T03:19:33;4.90;;;4.60;;
15230;SDS011;32569;51.762;8.564;2023-11-21T03:21:59;5.20;;;4.90;;
15230;SDS011;32569;51.762;8.564;2023-11-21T03:24:26;4.30;;;4.00;;
15230;SDS011;32569;51.762;8.564;2023-11-21T03:26:55;4.07;;;3.77;;
15230;SDS011;32569;51.762;8.564;2023-11-21T03:29:22;4.37;;;4.07;;
15230;SDS011;32569;51.762;8.564;2023-11-21T03:31:50;4.60;;;4.20;;
15230;SDS011;32569;51.762;8.564;2023-11-21T03:34:22;4.90;;;4.50;;
15230;SDS011;32569;51.762;8.564;2023-11-21T03:36:55;4.50;;;4.20;;
15230;SDS011;32569;51.762;8.564;2023-11-21T03:39:22;4.83;;;4.50;;
15230;SDS011;32569;51.762;8.564;2023-11-21T03:41:53;5.13;;;4.07;;
15230;SDS011;32569;51.762;8.564;2023-11-21T03:44:20;4.67;;;4.33;;
15230;SDS011;32569;51.762;8.564;2023-11-21T03:46:47;4.40;;;4.10;;
15230;SDS011;32569;51.762;8.564;2023-11-21T03:49:15;4.33;;;4.03;;
15230;SDS011;32569;51.762;8.564;2023-11-21T03:51:42;3.40;;;3.20;;
15230;SDS011;32569;51.762;8.564;2023-11-21T03:54:08;4.57;;;4.23;;
15230;SDS011;32569;51.762;8.564;2023-11-21T03:56:36;4.50;;;4.20;;
15230;SDS011;32569;51.762;8.564;2023-11-21T03:59:02;4.60;;;4.30;;
15230;SDS011;32569;51.762;8.564;2023-11-21T04:01:29;4.27;;;4.00;;
15230;SDS011;32569;51.762;8.564;2023-11-21T04:03:56;4.17;;;3.87;;
15230;SDS011;32569;51.762;8.564;2023-11-21T04:06:24;4.33;;;4.03;;
15230;SDS011;32569;51.762;8.564;2023-11-21T04:08:50;4.97;;;4.57;;
15230;SDS011;32569;51.762;8.564;2023-11-21T04:11:17;4.77;;;4.47;;
15230;SDS011;32569;51.762;8.564;2023-11-21T04:13:44;4.50;;;4.20;;
15230;SDS011;32569;51.762;8.564;2023-11-21T04:16:11;4.20;;;3.90;;
15230;SDS011;32569;51.762;8.564;2023-11-21T04:18:38;4.40;;;4.10;;
15230;SDS011;32569;51.762;8.564;2023-11-21T04:21:05;4.50;;;4.20;;
15230;SDS011;32569;51.762;8.564;2023-11-21T04:23:34;4.50;;;4.20;;
15230;SDS011;32569;51.762;8.564;2023-11-21T04:26:01;4.53;;;4.23;;
15230;SDS011;32569;51.762;8.564;2023-11-21T04:28:28;4.80;;;4.50;;
15230;SDS011;32569;51.762;8.564;2023-11-21T04:30:55;4.63;;;4.33;;
15230;SDS011;32569;51.762;8.564;2023-11-21T04:33:22;5.03;;;4.70;;
15230;SDS011;32569;51.762;8.564;2023-11-21T04:35:49;4.70;;;4.40;;
15230;SDS011;32569;51.762;8.564;2023-11-21T04:38:15;5.27;;;4.87;;
15230;SDS011;32569;51.762;8.564;2023-11-21T04:40:43;4.57;;;4.27;;
15230;SDS011;32569;51.762;8.564;2023-11-21T04:43:10;4.93;;;4.53;;
15230;SDS011;32569;51.762;8.564;2023-11-21T04:45:37;4.80;;;4.40;;
15230;SDS011;32569;51.762;8.564;2023-11-21T04:48:05;4.67;;;4.33;;
15230;SDS011;32569;51.762;8.564;2023-11-21T04:50:33;4.67;;;4.27;;
15230;SDS011;32569;51.762;8.564;2023-11-21T04:52:59;5.40;;;5.00;;
15230;SDS011;32569;51.762;8.564;2023-11-21T04:55:26;4.77;;;4.37;;
15230;SDS011;32569;51.762;8.564;2023-11-21T04:57:54;4.47;;;4.07;;
15230;SDS011;32569;51.762;8.564;2023-11-21T05:00:21;4.07;;;3.80;;
15230;SDS011;32569;51.762;8.564;2023-11-21T05:02:48;4.73;;;4.37;;
15230;SDS011;32569;51.762;8.564;2023-11-21T05:05:15;4.27;;;3.97;;
15230;SDS011;32569;51.762;8.564;2023-11-21T05:07:42;4.93;;;4.53;;
15230;SDS011;32569;51.762;8.564;2023-11-21T05:10:09;4.20;;;3.90;;
15230;SDS011;32569;51.762;8.564;2023-11-21T05:12:37;5.38;;;4.97;;
15230;SDS011;32569;51.762;8.564;2023-11-21T05:15:06;4.60;;;4.20;;
15230;SDS011;32569;51.762;8.564;2023-11-21T05:17:35;4.90;;;4.60;;
15230;SDS011;32569;51.762;8.564;2023-11-21T05:20:02;4.70;;;4.40;;
15230;SDS011;32569;51.762;8.564;2023-11-21T05:22:29;4.70;;;4.30;;
15230;SDS011;32569;51.762;8.564;2023-11-21T05:24:57;4.60;;;4.30;;
15230;SDS011;32569;51.762;8.564;2023-11-21T05:27:24;4.80;;;4.50;;
15230;SDS011;32569;51.762;8.564;2023-11-21T05:29:51;4.53;;;4.23;;
15230;SDS011;32569;51.762;8.564;2023-11-21T05:32:19;5.07;;;4.60;;
15230;SDS011;32569;51.762;8.564;2023-11-21T05:34:46;4.33;;;4.03;;
15230;SDS011;32569;51.762;8.564;2023-11-21T05:37:12;4.43;;;4.13;;
15230;SDS011;32569;51.762;8.564;2023-11-21T05:39:39;4.40;;;4.03;;
15230;SDS011;32569;51.762;8.564;2023-11-21T05:42:06;4.40;;;4.10;;
15230;SDS011;32569;51.762;8.564;2023-11-21T05:44:34;4.40;;;4.10;;
15230;SDS011;32569;51.762;8.564;2023-11-21T05:47:00;4.57;;;4.27;;
15230;SDS011;32569;51.762;8.564;2023-11-21T05:49:29;4.90;;;4.50;;
15230;SDS011;32569;51.762;8.564;2023-11-21T05:51:55;4.63;;;4.23;;
15230;SDS011;32569;51.762;8.564;2023-11-21T05:54:22;4.93;;;4.63;;
15230;SDS011;32569;51.762;8.564;2023-11-21T05:56:49;5.07;;;4.67;;
15230;SDS011;32569;51.762;8.564;2023-11-21T05:59:16;4.70;;;4.40;;
15230;SDS011;32569;51.762;8.564;2023-11-21T06:01:43;4.90;;;4.50;;
15230;SDS011;32569;51.762;8.564;2023-11-21T06:04:10;4.83;;;4.53;;
15230;SDS011;32569;51.762;8.564;2023-11-21T06:06:39;4.90;;;4.57;;
15230;SDS011;32569;51.762;8.564;2023-11-21T06:09:05;5.73;;;4.50;;
15230;SDS011;32569;51.762;8.564;2023-11-21T06:11:34;4.90;;;4.40;;
15230;SDS011;32569;51.762;8.564;2023-11-21T06:14:01;5.23;;;4.83;;
15230;SDS011;32569;51.762;8.564;2023-11-21T06:16:28;5.00;;;4.70;;
15230;SDS011;32569;51.762;8.564;2023-11-21T06:18:58;4.83;;;4.53;;
15230;SDS011;32569;51.762;8.564;2023-11-21T06:21:25;4.83;;;4.47;;
15230;SDS011;32569;51.762;8.564;2023-11-21T06:23:53;5.00;;;4.60;;
15230;SDS011;32569;51.762;8.564;2023-11-21T06:26:22;4.77;;;4.37;;
15230;SDS011;32569;51.762;8.564;2023-11-21T06:28:53;5.23;;;4.83;;
15230;SDS011;32569;51.762;8.564;2023-11-21T06:31:22;4.83;;;4.53;;
15230;SDS011;32569;51.762;8.564;2023-11-21T06:33:48;5.03;;;4.70;;
15230;SDS011;32569;51.762;8.564;2023-11-21T06:36:18;4.87;;;4.50;;
15230;SDS011;32569;51.762;8.564;2023-11-21T06:38:44;5.53;;;5.13;;
15230;SDS011;32569;51.762;8.564;2023-11-21T06:41:13;5.40;;;5.00;;
15230;SDS011;32569;51.762;8.564;2023-11-21T06:43:40;5.43;;;5.03;;
15230;SDS011;32569;51.762;8.564;2023-11-21T06:46:06;6.47;;;5.97;;
15230;SDS011;32569;51.762;8.564;2023-11-21T06:48:33;6.30;;;5.80;;
15230;SDS011;32569;51.762;8.564;2023-11-21T06:51:00;6.93;;;6.37;;
15230;SDS011;32569;51.762;8.564;2023-11-21T06:53:27;7.03;;;6.33;;
15230;SDS011;32569;51.762;8.564;2023-11-21T06:55:53;7.23;;;6.73;;
15230;SDS011;32569;51.762;8.564;2023-11-21T06:58:21;6.50;;;6.00;;
15230;SDS011;32569;51.762;8.564;2023-11-21T07:00:48;6.80;;;6.30;;
15230;SDS011;32569;51.762;8.564;2023-11-21T07:03:15;6.17;;;5.73;;
15230;SDS011;32569;51.762;8.564;2023-11-21T07:05:44;6.43;;;6.00;;
15230;SDS011;32569;51.762;8.564;2023-11-21T07:08:11;6.47;;;5.97;;
15230;SDS011;32569;51.762;8.564;2023-11-21T07:10:37;7.53;;;6.83;;
15230;SDS011;32569;51.762;8.564;2023-11-21T07:13:04;6.30;;;5.70;;
15230;SDS011;32569;51.762;8.564;2023-11-21T07:15:33;6.80;;;6.23;;
15230;SDS011;32569;51.762;8.564;2023-11-21T07:18:00;6.73;;;6.23;;
15230;SDS011;32569;51.762;8.564;2023-11-21T07:20:27;6.73;;;6.17;;
15230;SDS011;32569;51.762;8.564;2023-11-21T07:22:55;6.90;;;6.40;;
15230;SDS011;32569;51.762;8.564;2023-11-21T07:25:23;7.57;;;6.90;;
15230;SDS011;32569;51.762;8.564;2023-11-21T07:27:49;10.40;;;7.13;;
15230;SDS011;32569;51.762;8.564;2023-11-21T07:30:16;8.23;;;7.53;;
15230;SDS011;32569;51.762;8.564;2023-11-21T07:32:44;8.10;;;7.30;;
15230;SDS011;32569;51.762;8.564;2023-11-21T07:35:12;7.67;;;7.07;;
15230;SDS011;32569;51.762;8.564;2023-11-21T07:37:39;8.50;;;7.20;;
15230;SDS011;32569;51.762;8.564;2023-11-21T07:40:07;8.50;;;7.73;;
15230;SDS011;32569;51.762;8.564;2023-11-21T07:42:36;8.23;;;7.53;;
15230;SDS011;32569;51.762;8.564;2023-11-21T07:45:03;8.23;;;7.53;;
15230;SDS011;32569;51.762;8.564;2023-11-21T07:47:32;8.37;;;7.50;;
15230;SDS011;32569;51.762;8.564;2023-11-21T07:50:00;8.50;;;7.67;;
15230;SDS011;32569;51.762;8.564;2023-11-21T07:52:28;8.53;;;7.73;;
15230;SDS011;32569;51.762;8.564;2023-11-21T07:54:54;8.97;;;7.87;;
15230;SDS011;32569;51.762;8.564;2023-11-21T07:57:21;8.50;;;7.70;;
15230;SDS011;32569;51.762;8.564;2023-11-21T07:59:48;8.50;;;7.73;;
15230;SDS011;32569;51.762;8.564;2023-11-21T08:02:14;9.33;;;8.53;;
15230;SDS011;32569;51.762;8.564;2023-11-21T08:04:42;10.00;;;9.03;;
15230;SDS011;32569;51.762;8.564;2023-11-21T08:07:11;9.00;;;8.20;;
15230;SDS011;32569;51.762;8.564;2023-11-21T08:09:38;10.27;;;8.60;;
15230;SDS011;32569;51.762;8.564;2023-11-21T08:12:04;9.60;;;8.47;;
15230;SDS011;32569;51.762;8.564;2023-11-21T08:14:32;9.43;;;8.50;;
15230;SDS011;32569;51.762;8.564;2023-11-21T08:17:03;9.40;;;8.50;;
15230;SDS011;32569;51.762;8.564;2023-11-21T08:19:30;10.43;;;9.43;;
15230;SDS011;32569;51.762;8.564;2023-11-21T08:21:58;10.63;;;9.53;;
15230;SDS011;32569;51.762;8.564;2023-11-21T08:24:26;10.57;;;9.50;;
15230;SDS011;32569;51.762;8.564;2023-11-21T08:26:52;10.20;;;9.17;;
15230;SDS011;32569;51.762;8.564;2023-11-21T08:29:19;10.40;;;9.37;;
15230;SDS011;32569;51.762;8.564;2023-11-21T08:31:46;10.30;;;9.40;;
15230;SDS011;32569;51.762;8.564;2023-11-21T08:34:13;13.13;;;10.70;;
15230;SDS011;32569;51.762;8.564;2023-11-21T08:36:41;10.13;;;9.13;;
15230;SDS011;32569;51.762;8.564;2023-11-21T08:39:08;11.30;;;10.10;;
15230;SDS011;32569;51.762;8.564;2023-11-21T08:41:37;12.07;;;9.97;;
15230;SDS011;32569;51.762;8.564;2023-11-21T08:44:03;11.57;;;10.47;;
15230;SDS011;32569;51.762;8.564;2023-11-21T08:46:32;11.23;;;10.17;;
15230;SDS011;32569;51.762;8.564;2023-11-21T08:48:58;11.63;;;10.43;;
15230;SDS011;32569;51.762;8.564;2023-11-21T08:51:26;13.07;;;10.27;;
15230;SDS011;32569;51.762;8.564;2023-11-21T08:53:53;11.83;;;10.63;;
15230;SDS011;32569;51.762;8.564;2023-11-21T08:56:24;10.70;;;9.60;;
15230;SDS011;32569;51.762;8.564;2023-11-21T08:58:52;11.53;;;10.37;;
15230;SDS011;32569;51.762;8.564;2023-11-21T09:01:18;9.73;;;8.83;;
15230;SDS011;32569;51.762;8.564;2023-11-21T09:03:46;11.37;;;10.20;;
15230;SDS011;32569;51.762;8.564;2023-11-21T09:06:12;10.07;;;9.23;;
15230;SDS011;32569;51.762;8.564;2023-11-21T09:08:39;10.40;;;9.40;;
15230;SDS011;32569;51.762;8.564;2023-11-21T09:11:06;11.33;;;9.50;;
15230;SDS011;32569;51.762;8.564;2023-11-21T09:13:34;11.03;;;9.97;;
15230;SDS011;32569;51.762;8.564;2023-11-21T09:16:02;10.23;;;9.23;;
15230;SDS011;32569;51.762;8.564;2023-11-21T09:18:30;12.07;;;10.63;;
15230;SDS011;32569;51.762;8.564;2023-11-21T09:20:57;10.20;;;9.30;;
15230;SDS011;32569;51.762;8.564;2023-11-21T09:23:24;11.27;;;10.17;;
15230;SDS011;32569;51.762;8.564;2023-11-21T09:25:50;10.77;;;9.80;;
15230;SDS011;32569;51.762;8.564;2023-11-21T09:28:22;10.77;;;9.87;;
15230;SDS011;32569;51.762;8.564;2023-11-21T09:30:48;10.10;;;9.20;;
15230;SDS011;32569;51.762;8.564;2023-11-21T09:33:17;11.13;;;10.13;;
15230;SDS011;32569;51.762;8.564;2023-11-21T09:35:45;10.67;;;9.67;;
15230;SDS011;32569;51.762;8.564;2023-11-21T09:38:12;10.60;;;9.57;;
15230;SDS011;32569;51.762;8.564;2023-11-21T09:40:39;11.50;;;10.37;;
15230;SDS011;32569;51.762;8.564;2023-11-21T09:43:09;10.73;;;9.73;;
15230;SDS011;32569;51.762;8.564;2023-11-21T09:45:43;9.37;;;8.57;;
15230;SDS011;32569;51.762;8.564;2023-11-21T09:48:12;10.70;;;9.60;;
15230;SDS011;32569;51.762;8.564;2023-11-21T09:50:42;10.13;;;9.13;;
15230;SDS011;32569;51.762;8.564;2023-11-21T09:53:10;10.27;;;9.27;;
15230;SDS011;32569;51.762;8.564;2023-11-21T09:55:41;10.23;;;9.23;;
15230;SDS011;32569;51.762;8.564;2023-11-21T09:58:09;10.33;;;9.33;;
15230;SDS011;32569;51.762;8.564;2023-11-21T10:00:38;10.73;;;9.60;;
15230;SDS011;32569;51.762;8.564;2023-11-21T10:03:06;10.40;;;9.30;;
15230;SDS011;32569;51.762;8.564;2023-11-21T10:05:34;9.57;;;8.57;;
15230;SDS011;32569;51.762;8.564;2023-11-21T10:08:02;10.53;;;9.43;;
15230;SDS011;32569;51.762;8.564;2023-11-21T10:10:32;10.70;;;9.37;;
15230;SDS011;32569;51.762;8.564;2023-11-21T10:13:01;10.77;;;9.27;;
15230;SDS011;32569;51.762;8.564;2023-11-21T10:15:29;10.50;;;9.40;;
15230;SDS011;32569;51.762;8.564;2023-11-21T10:17:59;10.87;;;9.33;;
15230;SDS011;32569;51.762;8.564;2023-11-21T10:20:28;10.57;;;9.53;;
15230;SDS011;32569;51.762;8.564;2023-11-21T10:22:56;10.13;;;9.13;;
15230;SDS011;32569;51.762;8.564;2023-11-21T10:25:24;10.40;;;9.30;;
15230;SDS011;32569;51.762;8.564;2023-11-21T10:27:55;10.37;;;9.43;;
15230;SDS011;32569;51.762;8.564;2023-11-21T10:30:27;12.13;;;10.40;;
15230;SDS011;32569;51.762;8.564;2023-11-21T10:32:58;11.07;;;9.87;;
15230;SDS011;32569;51.762;8.564;2023-11-21T10:35:38;11.33;;;9.90;;
15230;SDS011;32569;51.762;8.564;2023-11-21T10:38:05;9.97;;;8.97;;
15230;SDS011;32569;51.762;8.564;2023-11-21T10:40:38;10.27;;;8.73;;
15230;SDS011;32569;51.762;8.564;2023-11-21T10:43:06;9.97;;;8.97;;
15230;SDS011;32569;51.762;8.564;2023-11-21T10:45:34;10.40;;;8.87;;
15230;SDS011;32569;51.762;8.564;2023-11-21T10:48:04;9.93;;;9.03;;
15230;SDS011;32569;51.762;8.564;2023-11-21T10:50:32;10.47;;;9.03;;
15230;SDS011;32569;51.762;8.564;2023-11-21T10:53:01;10.93;;;9.83;;
15230;SDS011;32569;51.762;8.564;2023-11-21T10:55:28;9.43;;;8.43;;
15230;SDS011;32569;51.762;8.564;2023-11-21T10:57:57;9.50;;;8.40;;
15230;SDS011;32569;51.762;8.564;2023-11-21T11:00:27;10.43;;;9.37;;
15230;SDS011;32569;51.762;8.564;2023-11-21T11:02:54;9.73;;;8.83;;
15230;SDS011;32569;51.762;8.564;2023-11-21T11:05:22;9.97;;;8.97;;
15230;SDS011;32569;51.762;8.564;2023-11-21T11:07:51;9.87;;;8.87;;
15230;SDS011;32569;51.762;8.564;2023-11-21T11:10:24;10.20;;;9.10;;
15230;SDS011;32569;51.762;8.564;2023-11-21T11:12:52;8.87;;;8.10;;
15230;SDS011;32569;51.762;8.564;2023-11-21T11:15:21;10.00;;;9.07;;
15230;SDS011;32569;51.762;8.564;2023-11-21T11:17:49;9.20;;;8.40;;
15230;SDS011;32569;51.762;8.564;2023-11-21T11:20:16;7.97;;;7.03;;
15230;SDS011;32569;51.762;8.564;2023-11-21T11:22:48;7.37;;;6.77;;
15230;SDS011;32569;51.762;8.564;2023-11-21T11:25:29;7.17;;;6.57;;
15230;SDS011;32569;51.762;8.564;2023-11-21T11:28:04;5.83;;;5.33;;
15230;SDS011;32569;51.762;8.564;2023-11-21T11:30:39;5.30;;;4.90;;
15230;SDS011;32569;51.762;8.564;2023-11-21T11:33:14;5.50;;;5.10;;
15230;SDS011;32569;51.762;8.564;2023-11-21T11:35:52;5.13;;;4.73;;
15230;SDS011;32569;51.762;8.564;2023-11-21T11:38:23;4.57;;;4.17;;
15230;SDS011;32569;51.762;8.564;2023-11-21T11:40:53;4.27;;;3.87;;
15230;SDS011;32569;51.762;8.564;2023-11-21T11:43:26;5.13;;;4.73;;
15230;SDS011;32569;51.762;8.564;2023-11-21T11:45:56;4.40;;;4.10;;
15230;SDS011;32569;51.762;8.564;2023-11-21T11:48:24;4.10;;;3.80;;
15230;SDS011;32569;51.762;8.564;2023-11-21T11:51:01;4.10;;;3.80;;
15230;SDS011;32569;51.762;8.564;2023-11-21T11:53:33;4.17;;;3.87;;
15230;SDS011;32569;51.762;8.564;2023-11-21T11:56:24;3.70;;;3.40;;
15230;SDS011;32569;51.762;8.564;2023-11-21T11:58:53;4.00;;;3.70;;
15230;SDS011;32569;51.762;8.564;2023-11-21T12:01:23;4.00;;;3.80;;
15230;SDS011;32569;51.762;8.564;2023-11-21T12:06:59;4.00;;;3.70;;
15230;SDS011;32569;51.762;8.564;2023-11-21T12:09:28;3.83;;;3.53;;
15230;SDS011;32569;51.762;8.564;2023-11-21T12:11:56;3.50;;;3.30;;
15230;SDS011;32569;51.762;8.564;2023-11-21T12:14:24;3.00;;;2.80;;
15230;SDS011;32569;51.762;8.564;2023-11-21T12:16:52;3.80;;;3.60;;
15230;SDS011;32569;51.762;8.564;2023-11-21T12:19:20;4.10;;;3.80;;
15230;SDS011;32569;51.762;8.564;2023-11-21T12:21:48;3.90;;;3.70;;
15230;SDS011;32569;51.762;8.564;2023-11-21T12:24:15;3.60;;;3.40;;
15230;SDS011;32569;51.762;8.564;2023-11-21T12:26:42;4.13;;;3.83;;
15230;SDS011;32569;51.762;8.564;2023-11-21T12:29:10;3.73;;;3.50;;
15230;SDS011;32569;51.762;8.564;2023-11-21T12:31:36;4.40;;;4.10;;
15230;SDS011;32569;51.762;8.564;2023-11-21T12:34:04;4.10;;;3.80;;
15230;SDS011;32569;51.762;8.564;2023-11-21T12:36:31;4.40;;;4.10;;
15230;SDS011;32569;51.762;8.564;2023-11-21T12:38:59;4.40;;;4.10;;
15230;SDS011;32569;51.762;8.564;2023-11-21T12:41:27;4.70;;;4.40;;
15230;SDS011;32569;51.762;8.564;2023-11-21T12:43:54;4.50;;;4.20;;
15230;SDS011;32569;51.762;8.564;2023-11-21T12:46:22;4.10;;;3.90;;
15230;SDS011;32569;51.762;8.564;2023-11-21T12:48:51;4.20;;;4.00;;
15230;SDS011;32569;51.762;8.564;2023-11-21T12:51:19;4.40;;;4.10;;
15230;SDS011;32569;51.762;8.564;2023-11-21T12:53:47;4.43;;;4.13;;
15230;SDS011;32569;51.762;8.564;2023-11-21T12:56:13;4.50;;;4.20;;
15230;SDS011;32569;51.762;8.564;2023-11-21T12:58:44;4.20;;;4.00;;
15230;SDS011;32569;51.762;8.564;2023-11-21T13:01:12;4.00;;;3.80;;
15230;SDS011;32569;51.762;8.564;2023-11-21T13:03:43;4.23;;;3.93;;
15230;SDS011;32569;51.762;8.564;2023-11-21T13:06:17;4.20;;;3.90;;
15230;SDS011;32569;51.762;8.564;2023-11-21T13:08:49;4.30;;;4.00;;
15230;SDS011;32569;51.762;8.564;2023-11-21T13:11:16;4.37;;;4.07;;
15230;SDS011;32569;51.762;8.564;2023-11-21T13:13:43;4.30;;;4.00;;
15230;SDS011;32569;51.762;8.564;2023-11-21T13:16:10;4.50;;;4.20;;
15230;SDS011;32569;51.762;8.564;2023-11-21T13:18:38;4.27;;;4.00;;
15230;SDS011;32569;51.762;8.564;2023-11-21T13:21:08;4.57;;;4.27;;
15230;SDS011;32569;51.762;8.564;2023-11-21T13:23:40;5.00;;;4.70;;
15230;SDS011;32569;51.762;8.564;2023-11-21T13:26:07;4.70;;;4.40;;
15230;SDS011;32569;51.762;8.564;2023-11-21T13:28:34;4.50;;;4.20;;
15230;SDS011;32569;51.762;8.564;2023-11-21T13:31:03;4.53;;;4.23;;
15230;SDS011;32569;51.762;8.564;2023-11-21T13:33:45;3.67;;;3.43;;
15230;SDS011;32569;51.762;8.564;2023-11-21T13:36:20;3.30;;;3.00;;
15230;SDS011;32569;51.762;8.564;2023-11-21T13:38:49;3.87;;;3.67;;
15230;SDS011;32569;51.762;8.564;2023-11-21T13:41:17;3.77;;;3.57;;
15230;SDS011;32569;51.762;8.564;2023-11-21T13:43:44;3.77;;;3.47;;
15230;SDS011;32569;51.762;8.564;2023-11-21T13:46:17;3.70;;;3.50;;
15230;SDS011;32569;51.762;8.564;2023-11-21T13:48:46;3.57;;;3.37;;
15230;SDS011;32569;51.762;8.564;2023-11-21T13:51:15;3.20;;;3.00;;
15230;SDS011;32569;51.762;8.564;2023-11-21T13:53:43;3.70;;;3.40;;
15230;SDS011;32569;51.762;8.564;2023-11-21T13:56:13;3.87;;;3.67;;
15230;SDS011;32569;51.762;8.564;2023-11-21T13:58:44;3.77;;;3.57;;
15230;SDS011;32569;51.762;8.564;2023-11-21T14:01:15;3.80;;;3.60;;
15230;SDS011;32569;51.762;8.564;2023-11-21T14:04:06;3.80;;;3.50;;
15230;SDS011;32569;51.762;8.564;2023-11-21T14:06:43;4.17;;;3.87;;
15230;SDS011;32569;51.762;8.564;2023-11-21T14:09:13;3.57;;;3.37;;
15230;SDS011;32569;51.762;8.564;2023-11-21T14:11:48;3.97;;;3.67;;
15230;SDS011;32569;51.762;8.564;2023-11-21T14:14:17;3.70;;;3.40;;
15230;SDS011;32569;51.762;8.564;2023-11-21T14:16:44;3.77;;;3.47;;
15230;SDS011;32569;51.762;8.564;2023-11-21T14:19:10;3.30;;;3.10;;
15230;SDS011;32569;51.762;8.564;2023-11-21T14:21:40;3.43;;;3.23;;
15230;SDS011;32569;51.762;8.564;2023-11-21T14:24:09;3.53;;;3.33;;
15230;SDS011;32569;51.762;8.564;2023-11-21T14:26:37;3.77;;;3.50;;
15230;SDS011;32569;51.762;8.564;2023-11-21T14:29:06;3.80;;;3.40;;
15230;SDS011;32569;51.762;8.564;2023-11-21T14:31:34;3.40;;;3.20;;
15230;SDS011;32569;51.762;8.564;2023-11-21T14:34:01;3.13;;;2.93;;
15230;SDS011;32569;51.762;8.564;2023-11-21T14:36:28;3.23;;;3.03;;
15230;SDS011;32569;51.762;8.564;2023-11-21T14:38:55;3.33;;;3.13;;
15230;SDS011;32569;51.762;8.564;2023-11-21T14:41:22;3.57;;;3.30;;
15230;SDS011;32569;51.762;8.564;2023-11-21T14:43:50;3.70;;;3.50;;
15230;SDS011;32569;51.762;8.564;2023-11-21T14:46:19;3.17;;;2.97;;
15230;SDS011;32569;51.762;8.564;2023-11-21T14:48:46;3.40;;;3.20;;
15230;SDS011;32569;51.762;8.564;2023-11-21T14:51:23;3.10;;;2.90;;
15230;SDS011;32569;51.762;8.564;2023-11-21T14:53:55;3.37;;;3.07;;